sensor_id;sensor_type;location;lat;lon;timestamp;P1;durP1;ratioP1;P2;durP2;ratioP2
3225;SDS011;1625;49.884;8.666;2022-08-19T00:01:09;19.77;;;17.83;;
3225;SDS011;1625;49.884;8.666;2022-08-19T00:03:35;19.00;;;17.50;;
3225;SDS011;1625;49.884;8.666;2022-08-19T00:06:00;20.07;;;18.47;;
3225;SDS011;1625;49.884;8.666;2022-08-19T00:08:26;19.23;;;17.73;;
3225;SDS011;1625;49.884;8.666;2022-08-19T00:10:51;17.37;;;15.97;;
3225;SDS011;1625;49.884;8.666;2022-08-19T00:13:17;18.33;;;16.63;;
3225;SDS011;1625;49.884;8.666;2022-08-19T00:15:43;18.97;;;17.47;;
3225;SDS011;1625;49.884;8.666;2022-08-19T00:18:09;17.50;;;16.10;;
3225;SDS011;1625;49.884;8.666;2022-08-19T00:20:35;17.70;;;16.30;;
3225;SDS011;1625;49.884;8.666;2022-08-19T00:23:03;17.70;;;16.30;;
3225;SDS011;1625;49.884;8.666;2022-08-19T00:25:29;18.23;;;16.70;;
3225;SDS011;1625;49.884;8.666;2022-08-19T00:27:55;18.83;;;17.10;;
3225;SDS011;1625;49.884;8.666;2022-08-19T00:30:20;18.67;;;16.90;;
3225;SDS011;1625;49.884;8.666;2022-08-19T00:32:46;18.63;;;17.23;;
3225;SDS011;1625;49.884;8.666;2022-08-19T00:35:12;18.67;;;17.27;;
3225;SDS011;1625;49.884;8.666;2022-08-19T00:37:37;18.17;;;16.70;;
3225;SDS011;1625;49.884;8.666;2022-08-19T00:40:04;20.00;;;18.33;;
3225;SDS011;1625;49.884;8.666;2022-08-19T00:42:31;18.33;;;16.73;;
3225;SDS011;1625;49.884;8.666;2022-08-19T00:44:57;19.30;;;17.60;;
3225;SDS011;1625;49.884;8.666;2022-08-19T00:47:23;18.13;;;16.63;;
3225;SDS011;1625;49.884;8.666;2022-08-19T00:49:53;19.03;;;17.53;;
3225;SDS011;1625;49.884;8.666;2022-08-19T00:52:29;18.60;;;17.10;;
3225;SDS011;1625;49.884;8.666;2022-08-19T00:54:59;19.20;;;17.60;;
3225;SDS011;1625;49.884;8.666;2022-08-19T00:57:27;19.07;;;17.47;;
3225;SDS011;1625;49.884;8.666;2022-08-19T01:00:03;19.20;;;17.47;;
3225;SDS011;1625;49.884;8.666;2022-08-19T01:02:32;19.40;;;17.80;;
3225;SDS011;1625;49.884;8.666;2022-08-19T01:04:59;17.50;;;16.00;;
3225;SDS011;1625;49.884;8.666;2022-08-19T01:07:27;16.90;;;15.40;;
3225;SDS011;1625;49.884;8.666;2022-08-19T01:09:53;17.47;;;16.07;;
3225;SDS011;1625;49.884;8.666;2022-08-19T01:12:19;18.10;;;16.60;;
3225;SDS011;1625;49.884;8.666;2022-08-19T01:14:45;18.33;;;16.73;;
3225;SDS011;1625;49.884;8.666;2022-08-19T01:17:11;18.10;;;16.47;;
3225;SDS011;1625;49.884;8.666;2022-08-19T01:19:39;17.13;;;15.83;;
3225;SDS011;1625;49.884;8.666;2022-08-19T01:24:42;16.53;;;15.23;;
3225;SDS011;1625;49.884;8.666;2022-08-19T01:27:07;16.97;;;15.57;;
3225;SDS011;1625;49.884;8.666;2022-08-19T01:29:34;17.83;;;16.33;;
3225;SDS011;1625;49.884;8.666;2022-08-19T01:32:03;17.40;;;16.00;;
3225;SDS011;1625;49.884;8.666;2022-08-19T01:34:29;17.43;;;16.00;;
3225;SDS011;1625;49.884;8.666;2022-08-19T01:36:55;17.20;;;15.80;;
3225;SDS011;1625;49.884;8.666;2022-08-19T01:39:22;16.50;;;15.07;;
3225;SDS011;1625;49.884;8.666;2022-08-19T01:41:49;17.33;;;15.93;;
3225;SDS011;1625;49.884;8.666;2022-08-19T01:44:16;17.77;;;16.37;;
3225;SDS011;1625;49.884;8.666;2022-08-19T01:46:42;18.17;;;16.67;;
3225;SDS011;1625;49.884;8.666;2022-08-19T01:49:09;17.33;;;15.83;;
3225;SDS011;1625;49.884;8.666;2022-08-19T01:51:35;17.30;;;15.90;;
3225;SDS011;1625;49.884;8.666;2022-08-19T01:54:01;17.20;;;15.70;;
3225;SDS011;1625;49.884;8.666;2022-08-19T01:56:27;17.17;;;15.73;;
3225;SDS011;1625;49.884;8.666;2022-08-19T01:58:54;19.03;;;17.23;;
3225;SDS011;1625;49.884;8.666;2022-08-19T02:01:23;16.40;;;15.00;;
3225;SDS011;1625;49.884;8.666;2022-08-19T02:03:49;17.27;;;15.73;;
3225;SDS011;1625;49.884;8.666;2022-08-19T02:06:15;16.87;;;15.47;;
3225;SDS011;1625;49.884;8.666;2022-08-19T02:08:42;17.07;;;15.73;;
3225;SDS011;1625;49.884;8.666;2022-08-19T02:11:10;17.17;;;15.60;;
3225;SDS011;1625;49.884;8.666;2022-08-19T02:13:45;18.03;;;16.43;;
3225;SDS011;1625;49.884;8.666;2022-08-19T02:16:11;17.70;;;16.10;;
3225;SDS011;1625;49.884;8.666;2022-08-19T02:18:36;17.20;;;15.80;;
3225;SDS011;1625;49.884;8.666;2022-08-19T02:21:02;16.47;;;15.07;;
3225;SDS011;1625;49.884;8.666;2022-08-19T02:23:27;16.97;;;15.57;;
3225;SDS011;1625;49.884;8.666;2022-08-19T02:25:53;16.87;;;15.53;;
3225;SDS011;1625;49.884;8.666;2022-08-19T02:28:19;17.70;;;16.17;;
3225;SDS011;1625;49.884;8.666;2022-08-19T02:30:45;16.67;;;15.23;;
3225;SDS011;1625;49.884;8.666;2022-08-19T02:33:11;18.63;;;16.93;;
3225;SDS011;1625;49.884;8.666;2022-08-19T02:35:40;18.00;;;16.40;;
3225;SDS011;1625;49.884;8.666;2022-08-19T02:38:07;16.90;;;15.50;;
3225;SDS011;1625;49.884;8.666;2022-08-19T02:40:52;16.67;;;15.37;;
3225;SDS011;1625;49.884;8.666;2022-08-19T02:43:20;17.37;;;15.87;;
3225;SDS011;1625;49.884;8.666;2022-08-19T02:45:47;16.37;;;14.87;;
3225;SDS011;1625;49.884;8.666;2022-08-19T02:48:17;18.17;;;16.47;;
3225;SDS011;1625;49.884;8.666;2022-08-19T02:50:44;17.27;;;15.87;;
3225;SDS011;1625;49.884;8.666;2022-08-19T02:53:10;17.57;;;15.97;;
3225;SDS011;1625;49.884;8.666;2022-08-19T02:55:42;18.97;;;17.37;;
3225;SDS011;1625;49.884;8.666;2022-08-19T02:58:09;17.23;;;15.80;;
3225;SDS011;1625;49.884;8.666;2022-08-19T03:00:35;17.80;;;16.30;;
3225;SDS011;1625;49.884;8.666;2022-08-19T03:03:00;16.17;;;14.77;;
3225;SDS011;1625;49.884;8.666;2022-08-19T03:05:26;16.37;;;15.10;;
3225;SDS011;1625;49.884;8.666;2022-08-19T03:07:52;15.83;;;14.53;;
3225;SDS011;1625;49.884;8.666;2022-08-19T03:10:18;17.57;;;16.17;;
3225;SDS011;1625;49.884;8.666;2022-08-19T03:12:43;16.30;;;15.00;;
3225;SDS011;1625;49.884;8.666;2022-08-19T03:15:11;18.17;;;16.57;;
3225;SDS011;1625;49.884;8.666;2022-08-19T03:17:36;16.33;;;14.93;;
3225;SDS011;1625;49.884;8.666;2022-08-19T03:20:02;17.47;;;16.07;;
3225;SDS011;1625;49.884;8.666;2022-08-19T03:22:29;16.47;;;15.07;;
3225;SDS011;1625;49.884;8.666;2022-08-19T03:24:54;16.00;;;14.50;;
3225;SDS011;1625;49.884;8.666;2022-08-19T03:27:20;17.50;;;16.17;;
3225;SDS011;1625;49.884;8.666;2022-08-19T03:29:46;17.40;;;16.00;;
3225;SDS011;1625;49.884;8.666;2022-08-19T03:32:12;16.77;;;15.07;;
3225;SDS011;1625;49.884;8.666;2022-08-19T03:34:38;15.40;;;14.20;;
3225;SDS011;1625;49.884;8.666;2022-08-19T03:37:08;16.20;;;14.80;;
3225;SDS011;1625;49.884;8.666;2022-08-19T03:39:35;17.20;;;15.70;;
3225;SDS011;1625;49.884;8.666;2022-08-19T03:42:02;16.27;;;14.87;;
3225;SDS011;1625;49.884;8.666;2022-08-19T03:44:29;18.10;;;16.47;;
3225;SDS011;1625;49.884;8.666;2022-08-19T03:46:57;16.93;;;15.43;;
3225;SDS011;1625;49.884;8.666;2022-08-19T03:49:25;16.47;;;15.07;;
3225;SDS011;1625;49.884;8.666;2022-08-19T03:51:53;17.07;;;15.67;;
3225;SDS011;1625;49.884;8.666;2022-08-19T03:54:22;17.70;;;16.10;;
3225;SDS011;1625;49.884;8.666;2022-08-19T03:56:49;16.20;;;14.80;;
3225;SDS011;1625;49.884;8.666;2022-08-19T03:59:18;16.40;;;15.00;;
3225;SDS011;1625;49.884;8.666;2022-08-19T04:01:47;16.63;;;15.13;;
3225;SDS011;1625;49.884;8.666;2022-08-19T04:04:12;16.90;;;15.40;;
3225;SDS011;1625;49.884;8.666;2022-08-19T04:06:38;18.30;;;16.80;;
3225;SDS011;1625;49.884;8.666;2022-08-19T04:09:05;17.40;;;15.80;;
3225;SDS011;1625;49.884;8.666;2022-08-19T04:11:37;18.90;;;17.30;;
3225;SDS011;1625;49.884;8.666;2022-08-19T04:14:06;16.50;;;15.00;;
3225;SDS011;1625;49.884;8.666;2022-08-19T04:16:34;17.63;;;16.10;;
3225;SDS011;1625;49.884;8.666;2022-08-19T04:19:00;17.37;;;15.77;;
3225;SDS011;1625;49.884;8.666;2022-08-19T04:21:28;17.57;;;16.07;;
3225;SDS011;1625;49.884;8.666;2022-08-19T04:23:54;18.00;;;16.50;;
3225;SDS011;1625;49.884;8.666;2022-08-19T04:26:23;16.90;;;15.50;;
3225;SDS011;1625;49.884;8.666;2022-08-19T04:28:52;16.97;;;15.40;;
3225;SDS011;1625;49.884;8.666;2022-08-19T04:31:19;18.90;;;17.20;;
3225;SDS011;1625;49.884;8.666;2022-08-19T04:33:53;18.67;;;17.17;;
3225;SDS011;1625;49.884;8.666;2022-08-19T04:36:26;18.03;;;16.47;;
3225;SDS011;1625;49.884;8.666;2022-08-19T04:38:54;18.13;;;16.53;;
3225;SDS011;1625;49.884;8.666;2022-08-19T04:41:21;17.83;;;16.23;;
3225;SDS011;1625;49.884;8.666;2022-08-19T04:44:06;18.63;;;17.03;;
3225;SDS011;1625;49.884;8.666;2022-08-19T04:46:32;18.50;;;16.80;;
3225;SDS011;1625;49.884;8.666;2022-08-19T04:48:58;16.83;;;15.53;;
3225;SDS011;1625;49.884;8.666;2022-08-19T04:51:24;18.07;;;16.53;;
3225;SDS011;1625;49.884;8.666;2022-08-19T04:53:50;17.47;;;15.87;;
3225;SDS011;1625;49.884;8.666;2022-08-19T04:56:18;18.83;;;17.23;;
3225;SDS011;1625;49.884;8.666;2022-08-19T04:58:45;16.80;;;15.40;;
3225;SDS011;1625;49.884;8.666;2022-08-19T05:01:12;16.50;;;15.20;;
3225;SDS011;1625;49.884;8.666;2022-08-19T05:03:41;17.87;;;16.20;;
3225;SDS011;1625;49.884;8.666;2022-08-19T05:06:09;17.53;;;16.00;;
3225;SDS011;1625;49.884;8.666;2022-08-19T05:08:37;17.97;;;16.27;;
3225;SDS011;1625;49.884;8.666;2022-08-19T05:11:11;18.43;;;16.93;;
3225;SDS011;1625;49.884;8.666;2022-08-19T05:13:47;17.93;;;16.53;;
3225;SDS011;1625;49.884;8.666;2022-08-19T05:16:17;17.20;;;15.70;;
3225;SDS011;1625;49.884;8.666;2022-08-19T05:18:44;17.80;;;16.30;;
3225;SDS011;1625;49.884;8.666;2022-08-19T05:21:29;16.40;;;14.90;;
3225;SDS011;1625;49.884;8.666;2022-08-19T05:24:14;16.90;;;15.50;;
3225;SDS011;1625;49.884;8.666;2022-08-19T05:26:45;16.83;;;15.43;;
3225;SDS011;1625;49.884;8.666;2022-08-19T05:29:13;17.77;;;15.97;;
3225;SDS011;1625;49.884;8.666;2022-08-19T05:31:40;16.70;;;15.30;;
3225;SDS011;1625;49.884;8.666;2022-08-19T05:34:06;16.90;;;15.50;;
3225;SDS011;1625;49.884;8.666;2022-08-19T05:36:34;16.93;;;15.53;;
3225;SDS011;1625;49.884;8.666;2022-08-19T05:39:04;16.03;;;14.83;;
3225;SDS011;1625;49.884;8.666;2022-08-19T05:41:31;17.03;;;15.43;;
3225;SDS011;1625;49.884;8.666;2022-08-19T05:43:57;18.43;;;16.63;;
3225;SDS011;1625;49.884;8.666;2022-08-19T05:46:25;17.73;;;16.23;;
3225;SDS011;1625;49.884;8.666;2022-08-19T05:48:51;17.60;;;16.00;;
3225;SDS011;1625;49.884;8.666;2022-08-19T05:51:16;17.07;;;15.70;;
3225;SDS011;1625;49.884;8.666;2022-08-19T05:53:42;16.70;;;15.20;;
3225;SDS011;1625;49.884;8.666;2022-08-19T05:56:11;17.60;;;16.00;;
3225;SDS011;1625;49.884;8.666;2022-08-19T05:58:41;16.77;;;15.27;;
3225;SDS011;1625;49.884;8.666;2022-08-19T06:01:10;17.03;;;15.73;;
3225;SDS011;1625;49.884;8.666;2022-08-19T06:03:41;18.57;;;16.97;;
3225;SDS011;1625;49.884;8.666;2022-08-19T06:06:07;17.30;;;15.60;;
3225;SDS011;1625;49.884;8.666;2022-08-19T06:08:34;16.53;;;15.03;;
3225;SDS011;1625;49.884;8.666;2022-08-19T06:13:47;16.23;;;14.70;;
3225;SDS011;1625;49.884;8.666;2022-08-19T06:16:17;16.50;;;14.83;;
3225;SDS011;1625;49.884;8.666;2022-08-19T06:18:47;16.40;;;14.70;;
3225;SDS011;1625;49.884;8.666;2022-08-19T06:21:15;17.37;;;15.97;;
3225;SDS011;1625;49.884;8.666;2022-08-19T06:23:40;16.47;;;14.97;;
3225;SDS011;1625;49.884;8.666;2022-08-19T06:26:06;15.83;;;14.53;;
3225;SDS011;1625;49.884;8.666;2022-08-19T06:28:36;18.53;;;16.33;;
3225;SDS011;1625;49.884;8.666;2022-08-19T06:31:11;15.83;;;14.40;;
3225;SDS011;1625;49.884;8.666;2022-08-19T06:33:38;15.97;;;14.50;;
3225;SDS011;1625;49.884;8.666;2022-08-19T06:36:04;15.00;;;13.40;;
3225;SDS011;1625;49.884;8.666;2022-08-19T06:38:33;16.53;;;15.03;;
3225;SDS011;1625;49.884;8.666;2022-08-19T06:41:00;15.33;;;14.10;;
3225;SDS011;1625;49.884;8.666;2022-08-19T06:43:29;16.67;;;15.17;;
3225;SDS011;1625;49.884;8.666;2022-08-19T06:45:55;14.23;;;13.13;;
3225;SDS011;1625;49.884;8.666;2022-08-19T06:48:22;15.30;;;13.57;;
3225;SDS011;1625;49.884;8.666;2022-08-19T06:50:47;15.20;;;13.90;;
3225;SDS011;1625;49.884;8.666;2022-08-19T06:53:15;16.27;;;14.87;;
3225;SDS011;1625;49.884;8.666;2022-08-19T06:55:44;15.67;;;14.37;;
3225;SDS011;1625;49.884;8.666;2022-08-19T06:58:10;13.93;;;12.83;;
3225;SDS011;1625;49.884;8.666;2022-08-19T07:00:39;14.33;;;13.13;;
3225;SDS011;1625;49.884;8.666;2022-08-19T07:03:05;14.23;;;13.00;;
3225;SDS011;1625;49.884;8.666;2022-08-19T07:05:30;13.00;;;11.80;;
3225;SDS011;1625;49.884;8.666;2022-08-19T07:07:56;13.13;;;12.03;;
3225;SDS011;1625;49.884;8.666;2022-08-19T07:10:22;12.90;;;11.90;;
3225;SDS011;1625;49.884;8.666;2022-08-19T07:12:47;13.97;;;12.90;;
3225;SDS011;1625;49.884;8.666;2022-08-19T07:15:15;13.47;;;12.17;;
3225;SDS011;1625;49.884;8.666;2022-08-19T07:17:41;12.70;;;11.70;;
3225;SDS011;1625;49.884;8.666;2022-08-19T07:20:08;12.83;;;11.63;;
3225;SDS011;1625;49.884;8.666;2022-08-19T07:22:35;13.43;;;12.23;;
3225;SDS011;1625;49.884;8.666;2022-08-19T07:25:05;11.20;;;10.30;;
3225;SDS011;1625;49.884;8.666;2022-08-19T07:27:32;11.13;;;10.23;;
3225;SDS011;1625;49.884;8.666;2022-08-19T07:29:59;11.47;;;10.27;;
3225;SDS011;1625;49.884;8.666;2022-08-19T07:32:25;10.60;;;9.60;;
3225;SDS011;1625;49.884;8.666;2022-08-19T07:34:55;11.57;;;10.57;;
3225;SDS011;1625;49.884;8.666;2022-08-19T07:37:21;10.40;;;9.50;;
3225;SDS011;1625;49.884;8.666;2022-08-19T07:39:47;11.13;;;10.20;;
3225;SDS011;1625;49.884;8.666;2022-08-19T07:42:12;11.07;;;10.00;;
3225;SDS011;1625;49.884;8.666;2022-08-19T07:44:46;11.67;;;10.87;;
3225;SDS011;1625;49.884;8.666;2022-08-19T07:47:11;15.37;;;13.97;;
3225;SDS011;1625;49.884;8.666;2022-08-19T07:49:37;11.50;;;10.50;;
3225;SDS011;1625;49.884;8.666;2022-08-19T07:52:05;11.63;;;10.67;;
3225;SDS011;1625;49.884;8.666;2022-08-19T07:54:34;10.67;;;9.77;;
3225;SDS011;1625;49.884;8.666;2022-08-19T07:57:05;11.43;;;10.53;;
3225;SDS011;1625;49.884;8.666;2022-08-19T07:59:32;12.30;;;11.20;;
3225;SDS011;1625;49.884;8.666;2022-08-19T08:01:57;10.43;;;9.53;;
3225;SDS011;1625;49.884;8.666;2022-08-19T08:04:25;18.73;;;16.90;;
3225;SDS011;1625;49.884;8.666;2022-08-19T08:07:10;10.40;;;9.53;;
3225;SDS011;1625;49.884;8.666;2022-08-19T08:10:05;11.03;;;9.97;;
3225;SDS011;1625;49.884;8.666;2022-08-19T08:12:33;9.67;;;8.80;;
3225;SDS011;1625;49.884;8.666;2022-08-19T08:15:10;10.63;;;9.60;;
3225;SDS011;1625;49.884;8.666;2022-08-19T08:17:41;10.20;;;9.30;;
3225;SDS011;1625;49.884;8.666;2022-08-19T08:20:08;9.87;;;8.97;;
3225;SDS011;1625;49.884;8.666;2022-08-19T08:22:34;9.20;;;8.40;;
3225;SDS011;1625;49.884;8.666;2022-08-19T08:25:20;7.93;;;7.33;;
3225;SDS011;1625;49.884;8.666;2022-08-19T08:27:48;6.20;;;5.80;;
3225;SDS011;1625;49.884;8.666;2022-08-19T08:30:16;6.30;;;5.80;;
3225;SDS011;1625;49.884;8.666;2022-08-19T08:32:47;7.50;;;7.00;;
3225;SDS011;1625;49.884;8.666;2022-08-19T08:35:14;9.40;;;6.27;;
3225;SDS011;1625;49.884;8.666;2022-08-19T08:37:43;6.80;;;6.20;;
3225;SDS011;1625;49.884;8.666;2022-08-19T08:46:03;7.37;;;6.70;;
3225;SDS011;1625;49.884;8.666;2022-08-19T08:48:52;7.13;;;6.40;;
3225;SDS011;1625;49.884;8.666;2022-08-19T08:51:23;6.73;;;6.13;;
3225;SDS011;1625;49.884;8.666;2022-08-19T08:53:56;6.30;;;5.80;;
3225;SDS011;1625;49.884;8.666;2022-08-19T08:56:23;7.37;;;6.67;;
3225;SDS011;1625;49.884;8.666;2022-08-19T08:58:54;6.47;;;5.97;;
3225;SDS011;1625;49.884;8.666;2022-08-19T09:01:33;7.43;;;6.83;;
3225;SDS011;1625;49.884;8.666;2022-08-19T09:03:59;6.97;;;6.37;;
3225;SDS011;1625;49.884;8.666;2022-08-19T09:06:37;6.40;;;5.90;;
3225;SDS011;1625;49.884;8.666;2022-08-19T09:09:32;6.23;;;5.83;;
3225;SDS011;1625;49.884;8.666;2022-08-19T09:17:35;5.67;;;5.27;;
3225;SDS011;1625;49.884;8.666;2022-08-19T09:22:38;6.10;;;5.50;;
3225;SDS011;1625;49.884;8.666;2022-08-19T09:25:07;5.97;;;5.47;;
3225;SDS011;1625;49.884;8.666;2022-08-19T09:27:35;6.50;;;6.00;;
3225;SDS011;1625;49.884;8.666;2022-08-19T09:30:03;5.80;;;5.40;;
3225;SDS011;1625;49.884;8.666;2022-08-19T09:32:29;6.10;;;5.60;;
3225;SDS011;1625;49.884;8.666;2022-08-19T09:34:55;6.87;;;6.30;;
3225;SDS011;1625;49.884;8.666;2022-08-19T09:37:23;5.83;;;5.43;;
3225;SDS011;1625;49.884;8.666;2022-08-19T09:39:49;10.43;;;9.50;;
3225;SDS011;1625;49.884;8.666;2022-08-19T09:42:15;11.70;;;10.57;;
3225;SDS011;1625;49.884;8.666;2022-08-19T09:44:41;7.40;;;6.80;;
3225;SDS011;1625;49.884;8.666;2022-08-19T09:47:08;8.27;;;7.70;;
3225;SDS011;1625;49.884;8.666;2022-08-19T09:49:36;9.30;;;8.50;;
3225;SDS011;1625;49.884;8.666;2022-08-19T09:52:03;8.20;;;7.50;;
3225;SDS011;1625;49.884;8.666;2022-08-19T09:54:29;7.93;;;7.23;;
3225;SDS011;1625;49.884;8.666;2022-08-19T09:56:55;7.40;;;6.90;;
3225;SDS011;1625;49.884;8.666;2022-08-19T09:59:25;7.63;;;7.07;;
3225;SDS011;1625;49.884;8.666;2022-08-19T10:01:51;9.00;;;8.30;;
3225;SDS011;1625;49.884;8.666;2022-08-19T10:04:16;8.70;;;8.00;;
3225;SDS011;1625;49.884;8.666;2022-08-19T10:06:42;7.70;;;7.10;;
3225;SDS011;1625;49.884;8.666;2022-08-19T10:09:09;8.57;;;7.87;;
3225;SDS011;1625;49.884;8.666;2022-08-19T10:11:36;8.70;;;8.00;;
3225;SDS011;1625;49.884;8.666;2022-08-19T10:14:04;8.63;;;7.83;;
3225;SDS011;1625;49.884;8.666;2022-08-19T10:16:33;8.87;;;8.27;;
3225;SDS011;1625;49.884;8.666;2022-08-19T10:19:00;9.57;;;8.77;;
3225;SDS011;1625;49.884;8.666;2022-08-19T10:21:31;9.07;;;8.47;;
3225;SDS011;1625;49.884;8.666;2022-08-19T10:23:58;9.30;;;8.60;;
3225;SDS011;1625;49.884;8.666;2022-08-19T10:26:26;8.57;;;7.97;;
3225;SDS011;1625;49.884;8.666;2022-08-19T10:28:54;8.43;;;7.90;;
3225;SDS011;1625;49.884;8.666;2022-08-19T10:31:22;8.10;;;7.50;;
3225;SDS011;1625;49.884;8.666;2022-08-19T10:33:50;8.57;;;7.90;;
3225;SDS011;1625;49.884;8.666;2022-08-19T10:36:22;9.87;;;9.03;;
3225;SDS011;1625;49.884;8.666;2022-08-19T10:38:50;8.40;;;7.80;;
3225;SDS011;1625;49.884;8.666;2022-08-19T10:41:19;9.13;;;8.43;;
3225;SDS011;1625;49.884;8.666;2022-08-19T10:43:49;9.33;;;8.60;;
3225;SDS011;1625;49.884;8.666;2022-08-19T10:46:17;9.43;;;8.73;;
3225;SDS011;1625;49.884;8.666;2022-08-19T10:48:43;9.43;;;8.57;;
3225;SDS011;1625;49.884;8.666;2022-08-19T10:51:09;9.97;;;9.17;;
3225;SDS011;1625;49.884;8.666;2022-08-19T10:53:54;10.60;;;9.60;;
3225;SDS011;1625;49.884;8.666;2022-08-19T10:56:20;9.10;;;8.50;;
3225;SDS011;1625;49.884;8.666;2022-08-19T10:59:05;8.90;;;8.10;;
3225;SDS011;1625;49.884;8.666;2022-08-19T11:01:32;9.73;;;9.03;;
3225;SDS011;1625;49.884;8.666;2022-08-19T11:03:59;9.60;;;8.90;;
3225;SDS011;1625;49.884;8.666;2022-08-19T11:06:28;9.30;;;8.60;;
3225;SDS011;1625;49.884;8.666;2022-08-19T11:08:56;9.63;;;8.83;;
3225;SDS011;1625;49.884;8.666;2022-08-19T11:11:22;9.83;;;9.20;;
3225;SDS011;1625;49.884;8.666;2022-08-19T11:13:48;9.13;;;8.63;;
3225;SDS011;1625;49.884;8.666;2022-08-19T11:16:19;8.13;;;7.43;;
3225;SDS011;1625;49.884;8.666;2022-08-19T11:18:52;8.80;;;8.20;;
3225;SDS011;1625;49.884;8.666;2022-08-19T11:23:55;17.37;;;15.60;;
3225;SDS011;1625;49.884;8.666;2022-08-19T11:26:23;8.60;;;8.03;;
3225;SDS011;1625;49.884;8.666;2022-08-19T11:28:49;7.47;;;6.93;;
3225;SDS011;1625;49.884;8.666;2022-08-19T11:31:20;7.20;;;6.70;;
3225;SDS011;1625;49.884;8.666;2022-08-19T11:33:47;8.03;;;7.43;;
3225;SDS011;1625;49.884;8.666;2022-08-19T11:36:16;6.60;;;6.20;;
3225;SDS011;1625;49.884;8.666;2022-08-19T11:38:43;8.30;;;7.70;;
3225;SDS011;1625;49.884;8.666;2022-08-19T11:41:13;7.80;;;7.20;;
3225;SDS011;1625;49.884;8.666;2022-08-19T11:43:40;8.40;;;7.70;;
3225;SDS011;1625;49.884;8.666;2022-08-19T11:46:07;8.47;;;7.87;;
3225;SDS011;1625;49.884;8.666;2022-08-19T11:48:36;8.50;;;7.87;;
3225;SDS011;1625;49.884;8.666;2022-08-19T11:51:09;9.13;;;8.53;;
3225;SDS011;1625;49.884;8.666;2022-08-19T11:53:37;9.50;;;8.80;;
3225;SDS011;1625;49.884;8.666;2022-08-19T11:56:03;10.13;;;9.33;;
3225;SDS011;1625;49.884;8.666;2022-08-19T11:58:30;10.73;;;9.93;;
3225;SDS011;1625;49.884;8.666;2022-08-19T12:00:56;10.23;;;9.50;;
3225;SDS011;1625;49.884;8.666;2022-08-19T12:03:22;10.63;;;9.93;;
3225;SDS011;1625;49.884;8.666;2022-08-19T12:05:49;11.37;;;10.57;;
3225;SDS011;1625;49.884;8.666;2022-08-19T12:08:15;11.63;;;10.80;;
3225;SDS011;1625;49.884;8.666;2022-08-19T12:10:42;11.80;;;11.00;;
3225;SDS011;1625;49.884;8.666;2022-08-19T12:13:09;12.10;;;11.20;;
3225;SDS011;1625;49.884;8.666;2022-08-19T12:15:35;11.40;;;10.60;;
3225;SDS011;1625;49.884;8.666;2022-08-19T12:18:02;10.80;;;10.10;;
3225;SDS011;1625;49.884;8.666;2022-08-19T12:20:29;12.00;;;11.00;;
3225;SDS011;1625;49.884;8.666;2022-08-19T12:22:54;11.30;;;10.50;;
3225;SDS011;1625;49.884;8.666;2022-08-19T12:25:20;11.00;;;10.20;;
3225;SDS011;1625;49.884;8.666;2022-08-19T12:27:45;11.30;;;10.50;;
3225;SDS011;1625;49.884;8.666;2022-08-19T12:30:12;10.70;;;10.00;;
3225;SDS011;1625;49.884;8.666;2022-08-19T12:32:38;9.93;;;9.33;;
3225;SDS011;1625;49.884;8.666;2022-08-19T12:35:04;11.10;;;10.37;;
3225;SDS011;1625;49.884;8.666;2022-08-19T12:37:31;11.07;;;10.27;;
3225;SDS011;1625;49.884;8.666;2022-08-19T12:39:57;10.13;;;9.17;;
3225;SDS011;1625;49.884;8.666;2022-08-19T12:42:23;10.23;;;9.50;;
3225;SDS011;1625;49.884;8.666;2022-08-19T12:44:49;10.73;;;10.00;;
3225;SDS011;1625;49.884;8.666;2022-08-19T12:47:17;10.20;;;9.60;;
3225;SDS011;1625;49.884;8.666;2022-08-19T12:49:42;8.90;;;8.20;;
3225;SDS011;1625;49.884;8.666;2022-08-19T12:52:09;9.10;;;8.50;;
3225;SDS011;1625;49.884;8.666;2022-08-19T12:54:35;8.20;;;7.60;;
3225;SDS011;1625;49.884;8.666;2022-08-19T12:57:06;7.83;;;7.33;;
3225;SDS011;1625;49.884;8.666;2022-08-19T12:59:33;8.17;;;7.67;;
3225;SDS011;1625;49.884;8.666;2022-08-19T13:01:59;7.73;;;7.17;;
3225;SDS011;1625;49.884;8.666;2022-08-19T13:04:25;6.93;;;6.53;;
3225;SDS011;1625;49.884;8.666;2022-08-19T13:06:51;7.43;;;6.03;;
3225;SDS011;1625;49.884;8.666;2022-08-19T13:09:16;7.00;;;6.50;;
3225;SDS011;1625;49.884;8.666;2022-08-19T13:11:42;6.10;;;5.70;;
3225;SDS011;1625;49.884;8.666;2022-08-19T13:14:08;6.87;;;6.43;;
3225;SDS011;1625;49.884;8.666;2022-08-19T13:16:36;5.50;;;5.10;;
3225;SDS011;1625;49.884;8.666;2022-08-19T13:19:02;6.20;;;5.80;;
3225;SDS011;1625;49.884;8.666;2022-08-19T13:21:30;5.93;;;5.53;;
3225;SDS011;1625;49.884;8.666;2022-08-19T13:23:56;6.10;;;5.70;;
3225;SDS011;1625;49.884;8.666;2022-08-19T13:26:22;6.07;;;5.67;;
3225;SDS011;1625;49.884;8.666;2022-08-19T13:28:47;6.40;;;6.00;;
3225;SDS011;1625;49.884;8.666;2022-08-19T13:31:33;6.27;;;5.77;;
3225;SDS011;1625;49.884;8.666;2022-08-19T13:34:19;5.93;;;5.53;;
3225;SDS011;1625;49.884;8.666;2022-08-19T13:36:52;6.30;;;5.90;;
3225;SDS011;1625;49.884;8.666;2022-08-19T13:39:18;5.17;;;4.77;;
3225;SDS011;1625;49.884;8.666;2022-08-19T13:41:45;4.90;;;4.60;;
3225;SDS011;1625;49.884;8.666;2022-08-19T13:44:14;5.93;;;5.57;;
3225;SDS011;1625;49.884;8.666;2022-08-19T14:07:21;5.80;;;5.40;;
3225;SDS011;1625;49.884;8.666;2022-08-19T14:20:33;4.93;;;4.53;;
3225;SDS011;1625;49.884;8.666;2022-08-19T14:25:48;5.40;;;4.90;;
3225;SDS011;1625;49.884;8.666;2022-08-19T14:28:25;4.50;;;4.20;;
3225;SDS011;1625;49.884;8.666;2022-08-19T14:30:51;7.57;;;4.73;;
3225;SDS011;1625;49.884;8.666;2022-08-19T14:33:17;4.70;;;4.40;;
3225;SDS011;1625;49.884;8.666;2022-08-19T14:35:43;4.40;;;4.10;;
3225;SDS011;1625;49.884;8.666;2022-08-19T14:38:28;5.50;;;5.00;;
3225;SDS011;1625;49.884;8.666;2022-08-19T14:41:18;5.13;;;3.90;;
3225;SDS011;1625;49.884;8.666;2022-08-19T14:43:48;6.67;;;6.13;;
3225;SDS011;1625;49.884;8.666;2022-08-19T14:49:53;4.83;;;4.43;;
3225;SDS011;1625;49.884;8.666;2022-08-19T15:20:06;5.00;;;4.70;;
3225;SDS011;1625;49.884;8.666;2022-08-19T15:26:58;6.57;;;6.17;;
3225;SDS011;1625;49.884;8.666;2022-08-19T15:29:23;5.83;;;5.43;;
3225;SDS011;1625;49.884;8.666;2022-08-19T15:31:49;5.90;;;5.40;;
3225;SDS011;1625;49.884;8.666;2022-08-19T15:34:16;6.20;;;5.60;;
3225;SDS011;1625;49.884;8.666;2022-08-19T15:36:42;5.77;;;5.37;;
3225;SDS011;1625;49.884;8.666;2022-08-19T15:39:07;5.57;;;5.17;;
3225;SDS011;1625;49.884;8.666;2022-08-19T15:41:34;6.17;;;5.67;;
3225;SDS011;1625;49.884;8.666;2022-08-19T15:44:02;6.00;;;5.60;;
3225;SDS011;1625;49.884;8.666;2022-08-19T15:46:31;6.53;;;6.13;;
3225;SDS011;1625;49.884;8.666;2022-08-19T15:48:58;5.80;;;5.40;;
3225;SDS011;1625;49.884;8.666;2022-08-19T15:51:24;5.20;;;4.80;;
3225;SDS011;1625;49.884;8.666;2022-08-19T15:53:51;6.93;;;5.10;;
3225;SDS011;1625;49.884;8.666;2022-08-19T15:56:17;5.80;;;5.30;;
3225;SDS011;1625;49.884;8.666;2022-08-19T15:58:43;6.07;;;5.67;;
3225;SDS011;1625;49.884;8.666;2022-08-19T16:01:27;6.17;;;5.60;;
3225;SDS011;1625;49.884;8.666;2022-08-19T16:04:11;6.40;;;6.00;;
3225;SDS011;1625;49.884;8.666;2022-08-19T16:06:56;5.63;;;5.27;;
3225;SDS011;1625;49.884;8.666;2022-08-19T16:09:25;5.20;;;4.80;;
3225;SDS011;1625;49.884;8.666;2022-08-19T16:11:54;4.60;;;4.30;;
3225;SDS011;1625;49.884;8.666;2022-08-19T16:14:21;4.70;;;4.37;;
3225;SDS011;1625;49.884;8.666;2022-08-19T16:16:47;4.40;;;4.10;;
3225;SDS011;1625;49.884;8.666;2022-08-19T16:19:14;4.90;;;4.50;;
3225;SDS011;1625;49.884;8.666;2022-08-19T16:21:43;5.53;;;5.03;;
3225;SDS011;1625;49.884;8.666;2022-08-19T16:24:11;5.40;;;5.03;;
3225;SDS011;1625;49.884;8.666;2022-08-19T16:26:38;6.10;;;5.60;;
3225;SDS011;1625;49.884;8.666;2022-08-19T16:29:05;6.30;;;5.70;;
3225;SDS011;1625;49.884;8.666;2022-08-19T16:31:32;11.40;;;10.40;;
3225;SDS011;1625;49.884;8.666;2022-08-19T16:33:58;5.60;;;5.17;;
3225;SDS011;1625;49.884;8.666;2022-08-19T16:36:24;5.97;;;5.37;;